Pocono Lake, Pennsylvania
Current Conditions -  °F | °C
As of 10:53 AM on Thursday 29 Jan 2015 (Local Time) from KMPO Reporting Station
Broken Clouds Broken Clouds  
Wind Chill: -11°   Ceiling: 11000
Heat Index: -5°   Visibility: 10mi
Dew Point: -18°   Wind: 9mph
Humidity: 37%   Direction: 130°SE
Pressure: 30.15"   Gusts: NA
Location:  41.09°N, 75.58°W
Report Text: KMPO 291553Z AUTO 13008KT 10SM BKN110 M05/M18 A3015 RMK AO2 SLP243 T10501178
Loading
Personal Weather Stations






























Interactive Weather Map New forecast layout! Learn more

10-Day Weather Forecast

Advertisements
Track Severe Weather on mobile